createdAt,value
2019-03-26T00:00:13.857Z,89.90
2019-03-26T00:01:14.356Z,90.05
2019-03-26T00:02:35.355Z,89.95
2019-03-26T00:03:14.359Z,89.81
2019-03-26T00:04:18.356Z,89.95
2019-03-26T00:05:35.856Z,89.95
2019-03-26T00:06:35.855Z,89.81
2019-03-26T00:07:14.856Z,89.53
2019-03-26T00:08:14.855Z,88.86
2019-03-26T00:09:15.355Z,89.19
2019-03-26T00:10:18.355Z,90.05
2019-03-26T00:11:15.357Z,89.76
2019-03-26T00:12:15.353Z,90.05
2019-03-26T00:13:15.856Z,89.47
2019-03-26T00:14:15.861Z,89.76
2019-03-26T00:15:19.868Z,89.67
2019-03-26T00:16:36.878Z,89.86
2019-03-26T00:17:17.810Z,89.00
2019-03-26T00:18:37.356Z,89.38
2019-03-26T00:19:16.351Z,89.38
2019-03-26T00:20:16.367Z,89.76
2019-03-26T00:21:19.857Z,89.28
2019-03-26T00:22:16.855Z,89.19
2019-03-26T00:23:37.856Z,89.19
2019-03-26T00:24:26.288Z,89.47
2019-03-26T00:25:16.861Z,89.19
2019-03-26T00:26:20.864Z,88.62
2019-03-26T00:27:17.354Z,88.71
2019-03-26T00:28:17.359Z,89.09
2019-03-26T00:29:17.356Z,89.00
2019-03-26T00:30:17.356Z,88.81
2019-03-26T00:31:17.853Z,88.90
2019-03-26T00:32:42.858Z,88.90
2019-03-26T00:33:17.854Z,88.90
2019-03-26T00:34:19.579Z,88.90
2019-03-26T00:35:18.353Z,88.90
2019-03-26T00:36:19.792Z,88.90
2019-03-26T00:37:18.354Z,88.90
2019-03-26T00:38:21.853Z,89.00
2019-03-26T00:39:18.355Z,89.28
2019-03-26T00:41:50.089Z,88.90
2019-03-26T00:42:50.098Z,89.28
2019-03-26T00:45:24.828Z,88.71
2019-03-26T00:46:24.832Z,89.00
2019-03-26T00:47:24.817Z,88.90
2019-03-26T00:48:46.347Z,88.81
2019-03-26T00:49:28.825Z,88.71
2019-03-26T00:50:25.333Z,88.81
2019-03-26T00:51:25.328Z,88.24
2019-03-26T00:52:48.826Z,87.76
2019-03-26T00:53:46.824Z,88.05
2019-03-26T00:54:25.825Z,88.34
2019-03-26T00:55:28.825Z,87.95
2019-03-26T00:56:26.326Z,87.57
2019-03-26T00:57:26.324Z,87.57
2019-03-26T00:58:26.327Z,87.67
2019-03-26T00:59:26.329Z,87.38
2019-03-26T01:00:30.323Z,87.95
2019-03-26T01:01:26.824Z,88.05
2019-03-26T01:02:26.825Z,88.05
2019-03-26T01:03:26.824Z,87.76
2019-03-26T01:04:32.972Z,87.38
2019-03-26T01:05:31.322Z,86.63
2019-03-26T01:06:28.282Z,87.29
2019-03-26T01:07:27.324Z,87.29
2019-03-26T01:08:48.327Z,86.91
2019-03-26T01:09:27.841Z,86.91
2019-03-26T01:10:27.830Z,86.91
2019-03-26T01:11:31.333Z,86.34
2019-03-26T01:12:31.047Z,86.05
2019-03-26T01:13:28.323Z,86.43
2019-03-26T01:14:28.323Z,86.24
2019-03-26T01:15:28.321Z,86.05
2019-03-26T01:16:53.323Z,86.34
2019-03-26T01:17:28.831Z,87.19
2019-03-26T01:18:28.825Z,86.82
2019-03-26T01:19:28.823Z,87.67
2019-03-26T01:20:28.865Z,87.57
2019-03-26T01:21:29.323Z,87.57
2019-03-26T01:22:53.323Z,87.67
2019-03-26T01:23:29.323Z,87.57
2019-03-26T01:24:29.323Z,87.76
2019-03-26T01:25:29.323Z,87.48
2019-03-26T01:26:29.834Z,87.48
2019-03-26T01:27:34.779Z,87.29
2019-03-26T01:28:29.823Z,86.91
2019-03-26T01:29:29.822Z,87.86
2019-03-26T01:30:29.822Z,87.10
2019-03-26T01:31:30.324Z,87.48
2019-03-26T01:32:34.822Z,87.48
2019-03-26T01:33:30.322Z,87.01
2019-03-26T01:34:30.321Z,86.63
2019-03-26T01:35:30.822Z,87.10
2019-03-26T01:36:30.820Z,87.01
2019-03-26T01:37:55.323Z,86.82
2019-03-26T01:38:30.821Z,86.63
2019-03-26T01:39:31.322Z,86.53
2019-03-26T01:40:31.323Z,86.82
2019-03-26T01:41:31.328Z,87.38
2019-03-26T01:42:31.324Z,87.19
2019-03-26T01:43:35.757Z,87.48
2019-03-26T01:44:31.824Z,87.57
2019-03-26T01:45:31.822Z,87.86
2019-03-26T01:46:31.821Z,88.24
2019-03-26T01:47:34.255Z,87.57
2019-03-26T01:48:56.824Z,86.72
2019-03-26T01:49:32.320Z,86.63
2019-03-26T01:50:32.321Z,87.10
2019-03-26T01:51:42.255Z,87.67
2019-03-26T01:52:59.821Z,87.48
2019-03-26T01:53:57.324Z,87.72
2019-03-26T01:56:04.684Z,87.38
2019-03-26T01:57:25.697Z,87.53
2019-03-26T01:58:04.693Z,86.77
2019-03-26T01:59:30.690Z,87.24
2019-03-26T02:00:05.192Z,87.24
2019-03-26T02:01:05.195Z,87.53
2019-03-26T02:02:05.195Z,87.34
2019-03-26T02:03:05.195Z,87.34
2019-03-26T02:04:30.202Z,87.62
2019-03-26T02:05:05.696Z,88.01
2019-03-26T02:06:05.701Z,87.34
2019-03-26T02:07:05.695Z,87.72
2019-03-26T02:08:06.197Z,87.72
2019-03-26T02:09:06.198Z,87.53
2019-03-26T02:10:10.192Z,88.29
2019-03-26T02:11:06.193Z,88.01
2019-03-26T02:13:37.926Z,88.81
2019-03-26T02:14:37.931Z,88.86
2019-03-26T02:16:02.434Z,88.06
2019-03-26T02:16:38.438Z,88.62
2019-03-26T02:17:38.431Z,88.81
2019-03-26T02:18:38.431Z,88.81
2019-03-26T02:19:38.431Z,88.62
2019-03-26T02:21:03.932Z,88.67
2019-03-26T02:21:38.931Z,88.53
2019-03-26T02:22:38.930Z,88.81
2019-03-26T02:23:38.937Z,89.39
2019-03-26T02:24:41.431Z,89.67
2019-03-26T02:25:39.440Z,89.20
2019-03-26T02:26:42.935Z,89.20
2019-03-26T02:27:39.445Z,89.29
2019-03-26T02:28:39.983Z,89.39
2019-03-26T02:30:00.932Z,89.29
2019-03-26T02:30:39.931Z,89.48
2019-03-26T02:31:46.865Z,88.81
2019-03-26T02:32:39.932Z,89.20
2019-03-26T02:33:40.432Z,89.48
2019-03-26T02:34:40.429Z,90.05
2019-03-26T02:35:40.433Z,90.05
2019-03-26T02:36:40.429Z,89.39
2019-03-26T02:37:44.866Z,89.76
2019-03-26T02:38:40.930Z,90.00
2019-03-26T02:39:43.365Z,90.00
2019-03-26T02:40:40.930Z,90.29
2019-03-26T02:42:02.440Z,90.62
2019-03-26T02:42:43.928Z,91.09
2019-03-26T02:43:41.435Z,90.52
2019-03-26T02:44:41.430Z,90.62
2019-03-26T02:45:41.929Z,90.71
2019-03-26T02:46:41.930Z,90.90
2019-03-26T02:48:05.935Z,91.00
2019-03-26T02:48:41.929Z,91.47
2019-03-26T02:49:42.444Z,91.47
2019-03-26T02:50:42.459Z,91.00
2019-03-26T02:51:42.429Z,91.28
2019-03-26T02:52:46.434Z,91.56
2019-03-26T02:53:42.929Z,91.19
2019-03-26T02:54:42.928Z,90.90
2019-03-26T02:55:42.932Z,91.19
2019-03-26T02:56:42.928Z,90.43
2019-03-26T02:57:43.428Z,90.62
2019-03-26T02:59:11.804Z,90.52
2019-03-26T02:59:43.431Z,90.71
2019-03-26T03:01:04.430Z,90.52
2019-03-26T03:01:43.942Z,90.62
2019-03-26T03:02:43.928Z,89.86
2019-03-26T03:03:46.864Z,89.72
2019-03-26T03:04:49.433Z,89.95
2019-03-26T03:06:06.362Z,90.05
2019-03-26T03:06:44.429Z,89.86
2019-03-26T03:08:05.433Z,90.14
2019-03-26T03:08:44.428Z,90.62
2019-03-26T03:09:48.426Z,90.28
2019-03-26T03:11:05.928Z,90.47
2019-03-26T03:11:44.928Z,90.09
2019-03-26T03:12:44.927Z,90.09
2019-03-26T03:13:44.933Z,89.90
2019-03-26T03:14:45.426Z,89.81
2019-03-26T03:15:48.540Z,89.81
2019-03-26T03:16:45.487Z,89.90
2019-03-26T03:17:45.427Z,90.47
2019-03-26T03:18:45.434Z,90.76
2019-03-26T03:19:45.926Z,90.09
2019-03-26T03:20:49.427Z,90.09
2019-03-26T03:21:45.936Z,90.28
2019-03-26T03:22:45.431Z,90.57
2019-03-26T03:23:46.434Z,90.47
2019-03-26T03:24:46.427Z,91.14
2019-03-26T03:25:46.426Z,90.95
2019-03-26T03:26:50.426Z,90.95
2019-03-26T03:27:46.016Z,90.85
2019-03-26T03:28:46.925Z,90.85
2019-03-26T03:30:07.937Z,90.57
2019-03-26T03:30:46.926Z,90.47
2019-03-26T03:31:51.947Z,90.85
2019-03-26T03:32:47.426Z,91.04
2019-03-26T03:33:47.424Z,90.76
2019-03-26T03:34:47.431Z,90.47
2019-03-26T03:35:52.438Z,90.00
2019-03-26T03:37:12.432Z,90.66
2019-03-26T03:37:47.926Z,90.28
2019-03-26T03:38:47.934Z,89.62
2019-03-26T03:39:48.429Z,89.90
2019-03-26T03:40:48.424Z,90.09
2019-03-26T03:41:48.426Z,90.00
2019-03-26T03:42:51.926Z,90.76
2019-03-26T03:43:48.942Z,90.66
2019-03-26T03:44:48.926Z,91.14
2019-03-26T03:45:49.901Z,90.66
2019-03-26T03:46:48.922Z,90.66
2019-03-26T03:47:52.928Z,90.66
2019-03-26T03:48:49.423Z,90.57
2019-03-26T03:49:49.424Z,90.66
2019-03-26T03:50:49.426Z,90.47
2019-03-26T03:51:49.927Z,90.38
2019-03-26T03:52:49.940Z,90.47
2019-03-26T03:53:52.921Z,89.90
2019-03-26T03:54:49.935Z,90.19
2019-03-26T03:55:50.424Z,90.38
2019-03-26T03:56:50.425Z,91.14
2019-03-26T03:57:52.872Z,90.47
2019-03-26T03:58:54.451Z,90.66
2019-03-26T03:59:50.922Z,90.57
2019-03-26T04:00:50.925Z,90.09
2019-03-26T04:01:50.933Z,89.33
2019-03-26T04:02:50.930Z,89.62
2019-03-26T04:03:51.552Z,89.33
2019-03-26T04:05:16.473Z,89.81
2019-03-26T04:06:07.765Z,89.62
2019-03-26T04:06:51.423Z,89.62
2019-03-26T04:07:51.422Z,89.05
2019-03-26T04:08:51.921Z,89.14
2019-03-26T04:09:54.357Z,88.95
2019-03-26T04:10:54.923Z,88.86
2019-03-26T04:11:51.937Z,88.86
2019-03-26T04:12:52.426Z,89.33
2019-03-26T04:13:54.429Z,88.76
2019-03-26T04:14:52.428Z,88.20
2019-03-26T04:17:48.801Z,89.43
2019-03-26T04:18:48.749Z,88.86
2019-03-26T04:19:48.750Z,88.67
2019-03-26T04:20:51.250Z,88.76
2019-03-26T04:21:31.752Z,89.43
2019-03-26T04:22:49.251Z,89.14
2019-03-26T04:23:28.253Z,87.91
2019-03-26T04:24:49.751Z,87.62
2019-03-26T04:25:49.749Z,87.15
2019-03-26T04:26:32.250Z,87.24
2019-03-26T04:27:28.753Z,86.58
2019-03-26T04:28:29.257Z,86.68
2019-03-26T04:29:50.249Z,86.87
2019-03-26T04:30:29.255Z,87.53
2019-03-26T04:31:33.256Z,87.48
2019-03-26T04:32:29.750Z,86.63
2019-03-26T04:33:29.763Z,86.43
2019-03-26T04:34:29.748Z,87.19
2019-03-26T04:35:29.750Z,86.20
2019-03-26T04:36:30.249Z,85.63
2019-03-26T04:37:33.247Z,86.43
2019-03-26T04:38:30.249Z,85.49
2019-03-26T04:39:30.251Z,86.20
2019-03-26T04:40:30.756Z,85.68
2019-03-26T04:41:30.747Z,86.15
2019-03-26T04:42:34.255Z,85.44
2019-03-26T04:43:30.751Z,85.30
2019-03-26T04:44:31.244Z,85.25
2019-03-26T04:45:31.246Z,85.35
2019-03-26T04:46:31.250Z,85.49
2019-03-26T04:47:31.294Z,86.34
2019-03-26T04:48:35.246Z,86.53
2019-03-26T04:49:31.747Z,86.72
2019-03-26T04:50:31.818Z,86.24
2019-03-26T04:51:31.748Z,85.77
2019-03-26T04:52:32.246Z,86.34
2019-03-26T04:53:34.197Z,86.63
2019-03-26T04:54:35.247Z,86.34
2019-03-26T04:55:32.249Z,85.96
2019-03-26T04:56:32.747Z,86.05
2019-03-26T04:59:25.100Z,86.43
2019-03-26T05:00:07.116Z,86.53
2019-03-26T05:01:04.108Z,85.68
2019-03-26T05:02:04.611Z,85.58
2019-03-26T05:03:04.609Z,85.11
2019-03-26T05:04:04.613Z,85.96
2019-03-26T05:05:08.107Z,85.58
2019-03-26T05:06:05.108Z,84.87
2019-03-26T05:07:26.109Z,84.87
2019-03-26T05:08:05.108Z,84.72
2019-03-26T05:09:05.107Z,85.49
2019-03-26T05:11:40.793Z,86.15
2019-03-26T05:12:40.793Z,86.24
2019-03-26T05:13:40.798Z,85.72
2019-03-26T05:14:41.296Z,86.11
2019-03-26T05:15:44.792Z,85.35
2019-03-26T05:16:41.293Z,84.97
2019-03-26T05:17:42.746Z,85.44
2019-03-26T05:18:41.794Z,85.53
2019-03-26T05:21:16.655Z,86.34
2019-03-26T05:22:23.593Z,85.11
2019-03-26T05:23:13.157Z,85.39
2019-03-26T05:24:13.664Z,85.30
2019-03-26T05:25:13.656Z,85.58
2019-03-26T05:26:38.663Z,84.91
2019-03-26T05:27:13.656Z,85.58
2019-03-26T05:28:14.157Z,85.39
2019-03-26T05:29:14.157Z,86.05
2019-03-26T05:30:14.158Z,86.34
2019-03-26T05:31:14.160Z,85.96
2019-03-26T05:32:38.656Z,85.96
2019-03-26T05:33:14.658Z,84.63
2019-03-26T05:34:14.658Z,85.86
2019-03-26T05:35:14.664Z,85.39
2019-03-26T05:36:36.156Z,85.30
2019-03-26T05:38:50.333Z,85.39
2019-03-26T05:39:50.341Z,84.91
2019-03-26T05:40:50.340Z,84.16
2019-03-26T05:41:52.853Z,84.25
2019-03-26T05:42:54.842Z,85.01
2019-03-26T05:43:50.840Z,84.63
2019-03-26T05:44:50.840Z,84.44
2019-03-26T05:45:51.336Z,84.53
2019-03-26T05:46:51.340Z,85.01
2019-03-26T05:47:51.345Z,85.49
2019-03-26T05:48:55.848Z,85.11
2019-03-26T05:49:51.837Z,85.01
2019-03-26T05:50:51.843Z,85.01
2019-03-26T05:51:51.848Z,85.11
2019-03-26T05:52:51.841Z,84.91
2019-03-26T05:53:52.339Z,84.63
2019-03-26T05:54:55.339Z,84.82
2019-03-26T05:55:52.342Z,84.25
2019-03-26T05:56:52.375Z,83.87
2019-03-26T05:57:52.839Z,84.16
2019-03-26T05:58:52.839Z,83.59
2019-03-26T05:59:56.847Z,84.06
2019-03-26T06:00:52.868Z,83.59
2019-03-26T06:01:53.341Z,83.59
2019-03-26T06:02:53.338Z,83.97
2019-03-26T06:03:54.273Z,84.72
2019-03-26T06:04:53.340Z,84.06
2019-03-26T06:05:56.838Z,82.82
2019-03-26T06:07:14.838Z,83.30
2019-03-26T06:07:53.844Z,83.59
2019-03-26T06:08:53.838Z,84.34
2019-03-26T06:09:54.338Z,84.06
2019-03-26T06:10:57.839Z,83.59
2019-03-26T06:11:54.345Z,83.59
2019-03-26T06:12:54.337Z,83.68
2019-03-26T06:13:54.837Z,82.26
2019-03-26T06:16:38.207Z,81.21
2019-03-26T06:17:26.203Z,82.16
2019-03-26T06:18:26.204Z,82.64
2019-03-26T06:19:28.159Z,80.93
2019-03-26T06:20:26.701Z,81.40
2019-03-26T06:21:30.710Z,82.07
2019-03-26T06:22:26.749Z,81.30
2019-03-26T06:23:26.703Z,81.21
2019-03-26T06:24:28.670Z,81.30
2019-03-26T06:25:28.215Z,81.30
2019-03-26T06:26:27.200Z,81.68
2019-03-26T06:27:33.646Z,81.40
2019-03-26T06:28:27.200Z,80.93
2019-03-26T06:29:27.202Z,81.59
2019-03-26T06:31:58.931Z,80.74
2019-03-26T06:33:02.441Z,81.30
2019-03-26T06:33:58.944Z,80.45
2019-03-26T06:34:59.439Z,80.64
2019-03-26T06:35:59.438Z,80.45
2019-03-26T06:36:59.439Z,78.93
2019-03-26T06:38:03.440Z,79.50
2019-03-26T06:38:59.939Z,79.69
2019-03-26T06:39:59.939Z,79.31
2019-03-26T06:40:59.943Z,80.26
2019-03-26T06:41:59.940Z,81.12
2019-03-26T06:43:00.448Z,80.35
2019-03-26T06:44:04.442Z,79.79
2019-03-26T06:45:00.439Z,80.26
2019-03-26T06:46:00.438Z,80.16
2019-03-26T06:48:31.447Z,80.77
2019-03-26T06:49:36.183Z,80.49
2019-03-26T06:50:32.174Z,80.11
2019-03-26T06:51:32.675Z,80.58
2019-03-26T06:52:32.674Z,79.73
2019-03-26T06:53:32.675Z,78.93
2019-03-26T06:54:38.173Z,78.88
2019-03-26T06:55:33.174Z,78.78
2019-03-26T06:56:33.173Z,79.25
2019-03-26T06:57:35.861Z,79.16
2019-03-26T06:58:33.184Z,79.35
2019-03-26T06:59:37.175Z,80.02
2019-03-26T07:00:33.673Z,80.30
2019-03-26T07:01:33.673Z,80.30
2019-03-26T07:02:33.673Z,79.83
2019-03-26T07:03:34.175Z,79.16
2019-03-26T07:04:34.180Z,79.63
2019-03-26T07:05:38.177Z,78.97
2019-03-26T07:06:34.171Z,78.88
2019-03-26T07:07:55.673Z,78.11
2019-03-26T07:08:34.679Z,78.30
2019-03-26T07:09:34.674Z,78.21
2019-03-26T07:10:34.672Z,78.59
2019-03-26T07:11:38.173Z,77.45
2019-03-26T07:12:35.173Z,77.73
2019-03-26T07:13:35.171Z,76.88
2019-03-26T07:14:35.173Z,75.45
2019-03-26T07:15:36.611Z,74.60
2019-03-26T07:16:39.177Z,73.84
2019-03-26T07:17:35.674Z,74.85
2019-03-26T07:18:35.675Z,76.18
2019-03-26T07:19:59.171Z,76.08
2019-03-26T07:20:37.106Z,75.70
2019-03-26T07:21:48.926Z,75.70
2019-03-26T07:22:40.672Z,75.32
2019-03-26T07:25:21.906Z,75.89
2019-03-26T07:26:07.916Z,76.84
2019-03-26T07:27:07.913Z,75.51
2019-03-26T07:28:11.913Z,74.88
2019-03-26T07:29:29.413Z,74.60
2019-03-26T07:30:09.382Z,74.41
2019-03-26T07:31:08.430Z,74.12
2019-03-26T07:32:10.421Z,73.46
2019-03-26T07:33:12.410Z,74.69
2019-03-26T07:34:08.911Z,74.12
2019-03-26T07:35:08.914Z,74.41
2019-03-26T07:36:08.912Z,73.36
2019-03-26T07:37:09.412Z,73.46
2019-03-26T07:38:14.354Z,73.36
2019-03-26T07:39:09.412Z,73.36
2019-03-26T07:40:10.356Z,72.41
2019-03-26T07:41:09.466Z,73.46
2019-03-26T07:42:09.412Z,73.65
2019-03-26T07:43:09.916Z,73.08
2019-03-26T07:44:13.411Z,72.32
2019-03-26T07:45:09.912Z,72.13
2019-03-26T07:46:09.912Z,73.27
2019-03-26T07:47:10.419Z,73.46
2019-03-26T07:48:10.412Z,73.36
2019-03-26T07:49:14.417Z,74.03
2019-03-26T07:50:10.410Z,74.88
2019-03-26T07:52:42.153Z,72.89
2019-03-26T07:53:42.151Z,72.99
2019-03-26T07:55:10.586Z,72.99
2019-03-26T07:55:44.031Z,73.46
2019-03-26T07:56:42.657Z,74.79
2019-03-26T07:57:42.651Z,73.36
2019-03-26T07:58:42.720Z,72.70
2019-03-26T07:59:46.159Z,72.22
2019-03-26T08:00:43.155Z,72.60
2019-03-26T08:01:43.151Z,72.60
2019-03-26T08:02:43.209Z,72.22
2019-03-26T08:03:43.713Z,72.60
2019-03-26T08:05:07.648Z,73.65
2019-03-26T08:05:43.651Z,73.08
2019-03-26T08:06:43.651Z,72.41
2019-03-26T08:07:43.654Z,72.89
2019-03-26T08:08:44.156Z,71.08
2019-03-26T08:09:44.150Z,71.37
2019-03-26T08:10:47.152Z,70.23
2019-03-26T08:11:44.155Z,70.42
2019-03-26T08:12:44.696Z,69.66
2019-03-26T08:13:44.651Z,69.46
2019-03-26T08:14:44.673Z,69.85
2019-03-26T08:15:48.684Z,70.42
2019-03-26T08:16:45.150Z,69.18
2019-03-26T08:17:45.491Z,69.75
2019-03-26T08:18:45.150Z,70.89
2019-03-26T08:19:45.202Z,71.37
2019-03-26T08:20:45.654Z,71.27
2019-03-26T08:21:48.654Z,71.37
2019-03-26T08:22:45.652Z,71.37
2019-03-26T08:23:45.658Z,70.51
2019-03-26T08:24:45.650Z,69.75
2019-03-26T08:27:21.384Z,71.18
2019-03-26T08:28:17.390Z,71.56
2019-03-26T08:29:17.395Z,72.70
2019-03-26T08:30:38.894Z,70.83
2019-03-26T08:31:38.894Z,69.02
2019-03-26T08:32:42.392Z,67.76
2019-03-26T08:33:17.890Z,67.57
2019-03-26T08:34:20.386Z,67.50
2019-03-26T08:35:18.390Z,68.07
2019-03-26T08:36:18.390Z,68.65
2019-03-26T08:37:18.394Z,67.47
2019-03-26T08:38:22.390Z,67.47
2019-03-26T08:39:39.890Z,68.99
2019-03-26T08:40:18.894Z,68.99
2019-03-26T08:41:18.894Z,69.75
2019-03-26T08:42:19.390Z,69.46
2019-03-26T08:43:49.897Z,69.75
2019-03-26T08:44:19.390Z,70.23
2019-03-26T08:45:19.398Z,69.75
2019-03-26T08:47:51.130Z,69.37
2019-03-26T08:48:54.137Z,69.75
2019-03-26T08:49:51.636Z,69.75
2019-03-26T08:50:51.641Z,69.66
2019-03-26T08:51:51.634Z,70.99
2019-03-26T08:52:51.646Z,71.56
2019-03-26T08:54:16.194Z,71.27
2019-03-26T08:54:53.570Z,70.70
2019-03-26T08:55:52.135Z,70.42
2019-03-26T08:56:52.142Z,70.79
2019-03-26T08:57:52.136Z,71.46
2019-03-26T08:59:18.579Z,72.32
2019-03-26T08:59:52.639Z,71.27
2019-03-26T09:00:52.636Z,70.70
2019-03-26T09:01:52.631Z,71.66
2019-03-26T09:02:52.635Z,71.27
2019-03-26T09:04:19.114Z,70.61
2019-03-26T09:04:52.329Z,70.42
2019-03-26T09:05:54.111Z,72.03
2019-03-26T09:06:53.136Z,69.75
2019-03-26T09:08:24.886Z,70.70
2019-03-26T09:08:53.636Z,69.94
2019-03-26T09:11:28.962Z,70.79
2019-03-26T09:14:00.943Z,70.89
2019-03-26T09:15:04.951Z,71.37
2019-03-26T09:16:01.450Z,70.89
2019-03-26T09:17:22.451Z,69.66
2019-03-26T09:18:01.451Z,69.94
2019-03-26T09:19:22.448Z,69.94
2019-03-26T09:20:01.952Z,69.94
2019-03-26T09:21:26.962Z,71.08
2019-03-26T09:22:01.951Z,70.70
2019-03-26T09:23:01.962Z,70.51
2019-03-26T09:24:02.451Z,70.42
2019-03-26T09:25:02.450Z,70.13
2019-03-26T09:26:02.453Z,70.04
2019-03-26T09:27:26.950Z,69.94
2019-03-26T09:28:04.955Z,70.61
2019-03-26T09:29:02.954Z,71.37
2019-03-26T09:30:02.950Z,71.27
2019-03-26T09:31:02.949Z,70.89
2019-03-26T09:32:06.950Z,71.37
2019-03-26T09:34:37.252Z,71.08
2019-03-26T09:35:34.818Z,71.37
2019-03-26T09:36:34.822Z,72.41
2019-03-26T09:37:38.316Z,72.13
2019-03-26T09:38:56.316Z,72.13
2019-03-26T09:42:41.790Z,71.56
2019-03-26T09:43:38.300Z,71.94
2019-03-26T09:44:52.301Z,70.99
2019-03-26T09:45:38.809Z,70.61
2019-03-26T09:46:38.801Z,70.42
2019-03-26T09:47:42.799Z,70.51
2019-03-26T09:48:38.799Z,69.94
2019-03-26T09:49:39.307Z,71.46
2019-03-26T09:50:39.299Z,71.94
2019-03-26T09:51:39.298Z,70.89
2019-03-26T09:52:39.298Z,70.61
2019-03-26T09:53:42.799Z,71.75
2019-03-26T09:54:39.794Z,72.26
2019-03-26T09:55:39.801Z,71.18
2019-03-26T09:56:39.809Z,69.50
2019-03-26T09:57:40.310Z,69.69
2019-03-26T09:58:43.798Z,69.79
2019-03-26T09:59:40.310Z,68.74
2019-03-26T10:00:40.437Z,68.65
2019-03-26T10:01:40.803Z,68.36
2019-03-26T10:02:43.129Z,68.27
2019-03-26T10:05:36.573Z,66.65
2019-03-26T10:06:23.263Z,67.88
2019-03-26T10:07:21.358Z,68.46
2019-03-26T10:09:51.265Z,68.74
2019-03-26T10:11:08.272Z,67.69
2019-03-26T10:11:47.270Z,68.74
2019-03-26T10:12:50.703Z,69.98
2019-03-26T10:15:22.651Z,68.65
2019-03-26T10:16:40.155Z,68.74
2019-03-26T10:17:19.652Z,68.84
2019-03-26T10:18:19.652Z,67.60
2019-03-26T10:19:19.657Z,68.30
2019-03-26T10:20:19.652Z,69.44
2019-03-26T10:21:23.661Z,69.25
2019-03-26T10:22:20.294Z,67.92
2019-03-26T10:23:20.201Z,67.29
2019-03-26T10:24:20.152Z,68.33
2019-03-26T10:26:55.383Z,67.76
2019-03-26T10:28:12.900Z,68.81
2019-03-26T10:28:51.929Z,65.67
2019-03-26T10:29:52.394Z,64.62
2019-03-26T10:32:26.242Z,64.37
2019-03-26T10:33:23.761Z,64.18
2019-03-26T10:34:23.762Z,64.18
2019-03-26T10:35:24.260Z,66.18
2019-03-26T10:36:24.262Z,64.84
2019-03-26T10:37:49.260Z,64.65
2019-03-26T10:38:24.261Z,65.32
2019-03-26T10:39:24.760Z,63.99
2019-03-26T10:40:24.761Z,65.64
2019-03-26T10:41:24.768Z,64.47
2019-03-26T10:42:24.760Z,63.04
2019-03-26T10:43:51.231Z,64.78
2019-03-26T10:44:25.265Z,65.07
2019-03-26T10:45:25.270Z,64.40
2019-03-26T10:46:25.260Z,62.97
2019-03-26T10:47:46.763Z,62.68
2019-03-26T10:48:25.766Z,63.17
2019-03-26T10:51:00.526Z,64.31
2019-03-26T10:52:00.551Z,64.31
2019-03-26T10:53:00.533Z,65.16
2019-03-26T10:55:36.271Z,61.83
2019-03-26T10:56:32.757Z,63.92
2019-03-26T10:57:32.292Z,64.69
2019-03-26T10:58:32.780Z,65.45
2019-03-26T10:59:31.989Z,65.73
2019-03-26T11:00:32.786Z,64.65
2019-03-26T11:01:36.275Z,64.94
2019-03-26T11:02:54.278Z,64.47
2019-03-26T11:03:39.278Z,64.84
2019-03-26T11:04:34.712Z,65.80
2019-03-26T11:05:33.275Z,65.61
2019-03-26T11:06:37.277Z,65.32
2019-03-26T11:07:33.777Z,63.51
2019-03-26T11:08:54.778Z,63.42
2019-03-26T11:09:33.776Z,64.56
2019-03-26T11:10:34.307Z,64.84
2019-03-26T11:11:34.277Z,65.23
2019-03-26T11:12:38.278Z,65.95
2019-03-26T11:13:33.746Z,66.62
2019-03-26T11:14:34.777Z,66.75
2019-03-26T11:15:35.713Z,67.03
2019-03-26T11:16:34.777Z,66.56
2019-03-26T11:17:34.777Z,66.27
2019-03-26T11:18:59.278Z,65.70
2019-03-26T11:19:35.276Z,65.80
2019-03-26T11:20:35.283Z,65.07
2019-03-26T11:21:35.277Z,65.45
2019-03-26T11:24:11.015Z,61.16
2019-03-26T11:25:28.022Z,61.48
2019-03-26T11:26:06.535Z,61.76
2019-03-26T11:29:00.226Z,60.87
2019-03-26T11:29:41.839Z,59.34
2019-03-26T11:30:38.735Z,57.92
2019-03-26T11:31:38.736Z,57.82
2019-03-26T11:33:00.233Z,58.65
2019-03-26T11:34:00.238Z,59.53
2019-03-26T11:34:39.238Z,60.11
2019-03-26T11:37:13.914Z,58.65
2019-03-26T11:38:13.920Z,57.12
2019-03-26T11:39:13.925Z,56.36
2019-03-26T11:40:14.420Z,56.55
2019-03-26T11:41:22.355Z,56.62
2019-03-26T11:42:14.420Z,56.81
2019-03-26T11:43:14.420Z,57.95
2019-03-26T11:44:14.924Z,56.59
2019-03-26T11:45:14.937Z,57.16
2019-03-26T11:46:16.920Z,59.06
2019-03-26T11:49:14.561Z,62.97
2019-03-26T11:50:11.629Z,61.45
2019-03-26T11:50:51.127Z,61.54
2019-03-26T11:51:51.138Z,61.25
2019-03-26T11:52:54.627Z,61.83
2019-03-26T11:53:51.127Z,62.88
2019-03-26T11:56:22.867Z,63.17
2019-03-26T11:57:22.873Z,63.07
2019-03-26T11:58:30.794Z,61.83
2019-03-26T11:59:25.371Z,61.93
2019-03-26T12:00:23.399Z,62.59
2019-03-26T12:01:44.372Z,62.97
2019-03-26T12:02:23.401Z,61.64
2019-03-26T12:03:27.382Z,60.40
2019-03-26T12:04:23.883Z,61.07
2019-03-26T12:05:23.872Z,61.93
2019-03-26T12:06:23.871Z,62.78
2019-03-26T12:07:24.371Z,61.67
2019-03-26T12:08:24.373Z,60.02
2019-03-26T12:09:27.372Z,59.76
2019-03-26T12:10:24.381Z,58.91
2019-03-26T12:11:45.872Z,58.52
2019-03-26T12:12:24.871Z,57.67
2019-03-26T12:13:24.873Z,57.00
2019-03-26T12:14:49.872Z,58.14
2019-03-26T12:15:25.371Z,56.90
2019-03-26T12:16:25.379Z,58.24
2019-03-26T12:17:25.389Z,59.57
2019-03-26T12:18:25.373Z,58.04
2019-03-26T12:19:25.878Z,58.94
2019-03-26T12:20:29.873Z,56.58
2019-03-26T12:21:46.871Z,55.43
2019-03-26T12:22:25.871Z,55.02
2019-03-26T12:23:26.380Z,53.97
2019-03-26T12:24:26.371Z,54.07
2019-03-26T12:25:26.373Z,55.09
2019-03-26T12:28:02.557Z,55.54
2019-03-26T12:29:03.055Z,55.63
2019-03-26T12:30:01.634Z,56.49
2019-03-26T12:32:57.871Z,56.56
2019-03-26T12:33:33.376Z,57.70
2019-03-26T12:34:33.376Z,57.70
2019-03-26T12:35:33.876Z,58.47
2019-03-26T12:36:39.908Z,58.75
2019-03-26T12:37:37.887Z,58.65
2019-03-26T12:38:33.876Z,58.56
2019-03-26T12:39:59.642Z,57.80
2019-03-26T12:40:34.383Z,58.47
2019-03-26T12:41:38.287Z,58.47
2019-03-26T12:42:33.842Z,58.18
2019-03-26T12:43:37.884Z,58.47
2019-03-26T12:44:34.878Z,58.56
2019-03-26T12:45:35.811Z,59.03
2019-03-26T12:46:34.880Z,59.92
2019-03-26T12:47:55.885Z,60.02
2019-03-26T12:48:38.885Z,58.47
2019-03-26T12:49:35.375Z,58.65
2019-03-26T12:50:36.319Z,59.42
2019-03-26T12:51:35.383Z,59.80
2019-03-26T12:52:35.375Z,60.56
2019-03-26T12:54:00.387Z,60.46
2019-03-26T12:54:35.875Z,60.66
2019-03-26T12:55:35.877Z,61.42
2019-03-26T12:56:35.877Z,62.18
2019-03-26T12:57:36.380Z,61.51
2019-03-26T12:58:36.622Z,60.37
2019-03-26T13:00:15.374Z,60.75
2019-03-26T13:00:38.376Z,61.51
2019-03-26T13:01:36.880Z,61.80
2019-03-26T13:04:29.236Z,61.32
2019-03-26T13:05:11.743Z,60.27
2019-03-26T13:06:08.257Z,61.51
2019-03-26T13:07:28.822Z,62.94
2019-03-26T13:08:29.745Z,62.37
2019-03-26T13:12:28.839Z,62.08
2019-03-26T13:13:35.849Z,60.94
2019-03-26T13:14:14.846Z,60.56
2019-03-26T13:15:36.419Z,60.85
2019-03-26T13:16:17.847Z,62.75
2019-03-26T13:17:15.346Z,63.70
2019-03-26T13:18:15.344Z,64.18
2019-03-26T13:19:36.849Z,64.18
2019-03-26T13:20:15.846Z,64.94
2019-03-26T13:21:19.351Z,62.94
2019-03-26T13:22:15.846Z,61.80
2019-03-26T13:23:16.348Z,60.75
2019-03-26T13:24:16.346Z,60.75
2019-03-26T13:25:16.345Z,61.42
2019-03-26T13:26:20.357Z,62.65
2019-03-26T13:27:16.849Z,62.75
2019-03-26T13:28:27.286Z,64.18
2019-03-26T13:29:18.310Z,61.42
2019-03-26T13:30:37.852Z,59.99
2019-03-26T13:31:41.894Z,61.13
2019-03-26T13:35:21.148Z,63.42
2019-03-26T13:36:21.150Z,63.04
2019-03-26T13:37:24.651Z,63.60
2019-03-26T13:38:21.150Z,63.42
2019-03-26T13:39:42.650Z,62.46
2019-03-26T13:40:27.158Z,61.80
2019-03-26T13:41:21.724Z,62.65
2019-03-26T13:42:25.657Z,61.51
2019-03-26T13:43:22.150Z,61.42
2019-03-26T13:44:22.153Z,62.46
2019-03-26T13:45:22.150Z,62.85
2019-03-26T13:46:22.158Z,62.75
2019-03-26T13:47:21.774Z,62.85
2019-03-26T13:48:27.084Z,62.94
2019-03-26T13:49:22.663Z,63.23
2019-03-26T13:50:24.089Z,62.37
2019-03-26T13:54:29.766Z,60.37
2019-03-26T13:55:25.771Z,60.37
2019-03-26T13:56:46.770Z,60.66
2019-03-26T13:57:26.269Z,61.51
2019-03-26T13:58:26.271Z,61.61